sensor_id;sensor_type;location;lat;lon;timestamp;P1;durP1;ratioP1;P2;durP2;ratioP2
24857;SDS011;12935;50.782;6.074;2022-09-13T00:01:15;29.57;;;13.00;;
24857;SDS011;12935;50.782;6.074;2022-09-13T00:03:40;28.47;;;12.20;;
24857;SDS011;12935;50.782;6.074;2022-09-13T00:06:14;40.60;;;13.50;;
24857;SDS011;12935;50.782;6.074;2022-09-13T00:08:41;41.73;;;13.93;;
24857;SDS011;12935;50.782;6.074;2022-09-13T00:11:11;37.27;;;14.27;;
24857;SDS011;12935;50.782;6.074;2022-09-13T00:13:39;34.23;;;13.60;;
24857;SDS011;12935;50.782;6.074;2022-09-13T00:16:08;26.00;;;11.70;;
24857;SDS011;12935;50.782;6.074;2022-09-13T00:18:36;23.47;;;12.60;;
24857;SDS011;12935;50.782;6.074;2022-09-13T00:21:08;48.10;;;14.60;;
24857;SDS011;12935;50.782;6.074;2022-09-13T00:23:35;44.87;;;14.70;;
24857;SDS011;12935;50.782;6.074;2022-09-13T00:26:02;28.67;;;14.43;;
24857;SDS011;12935;50.782;6.074;2022-09-13T00:28:28;52.07;;;14.90;;
24857;SDS011;12935;50.782;6.074;2022-09-13T00:30:53;30.57;;;13.47;;
24857;SDS011;12935;50.782;6.074;2022-09-13T00:33:19;39.23;;;14.20;;
24857;SDS011;12935;50.782;6.074;2022-09-13T00:35:44;37.43;;;13.40;;
24857;SDS011;12935;50.782;6.074;2022-09-13T00:38:09;50.97;;;15.40;;
24857;SDS011;12935;50.782;6.074;2022-09-13T00:40:38;33.17;;;13.53;;
24857;SDS011;12935;50.782;6.074;2022-09-13T00:43:03;36.93;;;14.43;;
24857;SDS011;12935;50.782;6.074;2022-09-13T00:45:30;37.27;;;14.03;;
24857;SDS011;12935;50.782;6.074;2022-09-13T00:48:00;32.63;;;13.23;;
24857;SDS011;12935;50.782;6.074;2022-09-13T00:52:57;32.90;;;13.20;;
24857;SDS011;12935;50.782;6.074;2022-09-13T00:55:31;37.37;;;13.73;;
24857;SDS011;12935;50.782;6.074;2022-09-13T00:58:03;35.50;;;13.33;;
24857;SDS011;12935;50.782;6.074;2022-09-13T01:00:32;36.27;;;14.00;;
24857;SDS011;12935;50.782;6.074;2022-09-13T01:02:58;37.90;;;13.40;;
24857;SDS011;12935;50.782;6.074;2022-09-13T01:05:29;27.70;;;12.70;;
24857;SDS011;12935;50.782;6.074;2022-09-13T01:08:00;35.80;;;14.27;;
24857;SDS011;12935;50.782;6.074;2022-09-13T01:10:26;46.40;;;13.97;;
24857;SDS011;12935;50.782;6.074;2022-09-13T01:13:12;33.90;;;13.20;;
24857;SDS011;12935;50.782;6.074;2022-09-13T01:15:42;31.63;;;13.80;;
24857;SDS011;12935;50.782;6.074;2022-09-13T01:18:08;32.07;;;13.20;;
24857;SDS011;12935;50.782;6.074;2022-09-13T01:31:53;34.17;;;14.00;;
24857;SDS011;12935;50.782;6.074;2022-09-13T01:34:28;48.17;;;14.77;;
24857;SDS011;12935;50.782;6.074;2022-09-13T01:37:10;43.17;;;13.23;;
24857;SDS011;12935;50.782;6.074;2022-09-13T01:47:44;35.93;;;12.93;;
24857;SDS011;12935;50.782;6.074;2022-09-13T01:52:49;41.20;;;14.07;;
24857;SDS011;12935;50.782;6.074;2022-09-13T01:58:15;45.20;;;14.00;;
24857;SDS011;12935;50.782;6.074;2022-09-13T02:00:44;49.03;;;14.53;;
24857;SDS011;12935;50.782;6.074;2022-09-13T02:03:18;57.40;;;15.70;;
24857;SDS011;12935;50.782;6.074;2022-09-13T02:05:51;30.50;;;11.77;;
24857;SDS011;12935;50.782;6.074;2022-09-13T02:08:22;54.30;;;14.70;;
24857;SDS011;12935;50.782;6.074;2022-09-13T02:10:58;30.97;;;12.70;;
24857;SDS011;12935;50.782;6.074;2022-09-13T02:13:29;36.73;;;13.47;;
24857;SDS011;12935;50.782;6.074;2022-09-13T02:16:01;34.37;;;14.17;;
24857;SDS011;12935;50.782;6.074;2022-09-13T02:18:34;29.33;;;13.00;;
24857;SDS011;12935;50.782;6.074;2022-09-13T02:21:08;21.83;;;11.57;;
24857;SDS011;12935;50.782;6.074;2022-09-13T02:23:43;33.37;;;13.47;;
24857;SDS011;12935;50.782;6.074;2022-09-13T02:26:14;24.10;;;12.27;;
24857;SDS011;12935;50.782;6.074;2022-09-13T02:28:42;46.07;;;14.80;;
24857;SDS011;12935;50.782;6.074;2022-09-13T02:31:12;31.53;;;12.33;;
24857;SDS011;12935;50.782;6.074;2022-09-13T02:33:44;30.10;;;13.07;;
24857;SDS011;12935;50.782;6.074;2022-09-13T02:36:25;45.17;;;14.43;;
24857;SDS011;12935;50.782;6.074;2022-09-13T02:39:08;43.47;;;15.20;;
24857;SDS011;12935;50.782;6.074;2022-09-13T02:41:41;50.47;;;15.63;;
24857;SDS011;12935;50.782;6.074;2022-09-13T02:55:21;47.23;;;15.57;;
24857;SDS011;12935;50.782;6.074;2022-09-13T03:00:39;30.23;;;13.20;;
24857;SDS011;12935;50.782;6.074;2022-09-13T03:03:06;38.67;;;14.73;;
24857;SDS011;12935;50.782;6.074;2022-09-13T03:05:35;39.47;;;14.50;;
24857;SDS011;12935;50.782;6.074;2022-09-13T03:08:00;39.27;;;15.37;;
24857;SDS011;12935;50.782;6.074;2022-09-13T03:10:28;45.37;;;15.37;;
24857;SDS011;12935;50.782;6.074;2022-09-13T03:15:59;39.77;;;14.70;;
24857;SDS011;12935;50.782;6.074;2022-09-13T03:19:11;50.27;;;16.10;;
24857;SDS011;12935;50.782;6.074;2022-09-13T03:24:04;37.23;;;15.83;;
24857;SDS011;12935;50.782;6.074;2022-09-13T03:26:40;37.30;;;14.10;;
24857;SDS011;12935;50.782;6.074;2022-09-13T03:29:26;24.30;;;13.57;;
24857;SDS011;12935;50.782;6.074;2022-09-13T03:32:33;34.90;;;14.97;;
24857;SDS011;12935;50.782;6.074;2022-09-13T03:35:44;38.53;;;14.20;;
24857;SDS011;12935;50.782;6.074;2022-09-13T03:37:56;49.33;;;16.37;;
24857;SDS011;12935;50.782;6.074;2022-09-13T03:45:29;31.87;;;13.93;;
24857;SDS011;12935;50.782;6.074;2022-09-13T03:47:58;59.77;;;16.37;;
24857;SDS011;12935;50.782;6.074;2022-09-13T03:50:25;33.37;;;13.90;;
24857;SDS011;12935;50.782;6.074;2022-09-13T03:52:53;24.97;;;12.90;;
24857;SDS011;12935;50.782;6.074;2022-09-13T03:55:24;50.23;;;15.10;;
24857;SDS011;12935;50.782;6.074;2022-09-13T03:57:50;26.23;;;13.00;;
24857;SDS011;12935;50.782;6.074;2022-09-13T04:00:15;38.93;;;13.90;;
24857;SDS011;12935;50.782;6.074;2022-09-13T04:02:42;30.20;;;13.13;;
24857;SDS011;12935;50.782;6.074;2022-09-13T04:05:08;25.10;;;12.83;;
24857;SDS011;12935;50.782;6.074;2022-09-13T04:07:33;34.13;;;13.40;;
24857;SDS011;12935;50.782;6.074;2022-09-13T04:09:58;38.63;;;13.47;;
24857;SDS011;12935;50.782;6.074;2022-09-13T04:12:24;56.60;;;16.00;;
24857;SDS011;12935;50.782;6.074;2022-09-13T04:14:50;59.40;;;15.70;;
24857;SDS011;12935;50.782;6.074;2022-09-13T04:17:16;40.00;;;13.77;;
24857;SDS011;12935;50.782;6.074;2022-09-13T04:19:42;28.37;;;12.40;;
24857;SDS011;12935;50.782;6.074;2022-09-13T04:22:09;36.70;;;13.50;;
24857;SDS011;12935;50.782;6.074;2022-09-13T04:24:34;22.23;;;12.10;;
24857;SDS011;12935;50.782;6.074;2022-09-13T04:27:00;28.20;;;12.57;;
24857;SDS011;12935;50.782;6.074;2022-09-13T04:29:25;26.67;;;11.50;;
24857;SDS011;12935;50.782;6.074;2022-09-13T04:31:51;30.27;;;13.07;;
24857;SDS011;12935;50.782;6.074;2022-09-13T04:34:18;22.97;;;12.37;;
24857;SDS011;12935;50.782;6.074;2022-09-13T04:36:44;47.93;;;14.10;;
24857;SDS011;12935;50.782;6.074;2022-09-13T04:39:10;34.27;;;13.87;;
24857;SDS011;12935;50.782;6.074;2022-09-13T04:41:37;24.60;;;11.63;;
24857;SDS011;12935;50.782;6.074;2022-09-13T04:44:03;47.87;;;14.83;;
24857;SDS011;12935;50.782;6.074;2022-09-13T04:46:28;63.47;;;16.20;;
24857;SDS011;12935;50.782;6.074;2022-09-13T04:48:53;36.10;;;13.20;;
24857;SDS011;12935;50.782;6.074;2022-09-13T04:51:19;39.77;;;14.30;;
24857;SDS011;12935;50.782;6.074;2022-09-13T04:53:52;33.73;;;12.97;;
24857;SDS011;12935;50.782;6.074;2022-09-13T04:56:19;28.70;;;11.80;;
24857;SDS011;12935;50.782;6.074;2022-09-13T04:58:45;48.43;;;14.77;;
24857;SDS011;12935;50.782;6.074;2022-09-13T05:01:10;43.73;;;14.27;;
24857;SDS011;12935;50.782;6.074;2022-09-13T05:03:36;32.17;;;13.07;;
24857;SDS011;12935;50.782;6.074;2022-09-13T05:06:09;54.20;;;16.47;;
24857;SDS011;12935;50.782;6.074;2022-09-13T05:08:36;42.73;;;15.77;;
24857;SDS011;12935;50.782;6.074;2022-09-13T05:11:02;36.10;;;13.57;;
24857;SDS011;12935;50.782;6.074;2022-09-13T05:13:28;25.90;;;12.37;;
24857;SDS011;12935;50.782;6.074;2022-09-13T05:15:58;41.27;;;15.47;;
24857;SDS011;12935;50.782;6.074;2022-09-13T05:18:25;24.13;;;12.90;;
24857;SDS011;12935;50.782;6.074;2022-09-13T05:20:54;22.00;;;13.37;;
24857;SDS011;12935;50.782;6.074;2022-09-13T05:23:20;40.33;;;14.73;;
24857;SDS011;12935;50.782;6.074;2022-09-13T05:25:51;32.87;;;13.20;;
24857;SDS011;12935;50.782;6.074;2022-09-13T05:28:29;36.80;;;13.40;;
24857;SDS011;12935;50.782;6.074;2022-09-13T05:31:00;23.00;;;11.80;;
24857;SDS011;12935;50.782;6.074;2022-09-13T05:33:32;39.57;;;13.67;;
24857;SDS011;12935;50.782;6.074;2022-09-13T05:35:59;51.47;;;16.77;;
24857;SDS011;12935;50.782;6.074;2022-09-13T05:38:24;43.13;;;15.10;;
24857;SDS011;12935;50.782;6.074;2022-09-13T05:40:53;40.53;;;14.40;;
24857;SDS011;12935;50.782;6.074;2022-09-13T05:43:21;24.60;;;12.33;;
24857;SDS011;12935;50.782;6.074;2022-09-13T05:45:47;29.20;;;13.60;;
24857;SDS011;12935;50.782;6.074;2022-09-13T05:48:12;57.37;;;15.80;;
24857;SDS011;12935;50.782;6.074;2022-09-13T05:50:37;41.77;;;14.23;;
24857;SDS011;12935;50.782;6.074;2022-09-13T05:53:03;37.67;;;14.93;;
24857;SDS011;12935;50.782;6.074;2022-09-13T05:55:28;25.93;;;12.90;;
24857;SDS011;12935;50.782;6.074;2022-09-13T05:57:54;36.43;;;13.70;;
24857;SDS011;12935;50.782;6.074;2022-09-13T06:00:20;37.07;;;13.70;;
24857;SDS011;12935;50.782;6.074;2022-09-13T06:02:45;25.83;;;12.27;;
24857;SDS011;12935;50.782;6.074;2022-09-13T06:05:11;34.73;;;13.80;;
24857;SDS011;12935;50.782;6.074;2022-09-13T06:07:38;25.20;;;14.10;;
24857;SDS011;12935;50.782;6.074;2022-09-13T06:10:05;30.73;;;14.50;;
24857;SDS011;12935;50.782;6.074;2022-09-13T06:12:32;32.13;;;14.13;;
24857;SDS011;12935;50.782;6.074;2022-09-13T06:14:57;32.83;;;14.87;;
24857;SDS011;12935;50.782;6.074;2022-09-13T06:17:22;26.83;;;14.00;;
24857;SDS011;12935;50.782;6.074;2022-09-13T06:19:47;47.37;;;15.87;;
24857;SDS011;12935;50.782;6.074;2022-09-13T06:22:13;65.00;;;17.83;;
24857;SDS011;12935;50.782;6.074;2022-09-13T06:24:38;22.27;;;12.67;;
24857;SDS011;12935;50.782;6.074;2022-09-13T06:27:03;34.10;;;13.33;;
24857;SDS011;12935;50.782;6.074;2022-09-13T06:29:29;54.13;;;16.97;;
24857;SDS011;12935;50.782;6.074;2022-09-13T06:31:54;48.27;;;15.90;;
24857;SDS011;12935;50.782;6.074;2022-09-13T06:34:19;41.57;;;14.70;;
24857;SDS011;12935;50.782;6.074;2022-09-13T06:36:45;48.40;;;14.37;;
24857;SDS011;12935;50.782;6.074;2022-09-13T06:39:10;42.30;;;15.10;;
24857;SDS011;12935;50.782;6.074;2022-09-13T06:41:35;28.47;;;13.80;;
24857;SDS011;12935;50.782;6.074;2022-09-13T06:44:02;41.53;;;14.60;;
24857;SDS011;12935;50.782;6.074;2022-09-13T06:46:28;46.97;;;16.00;;
24857;SDS011;12935;50.782;6.074;2022-09-13T06:48:57;35.57;;;14.80;;
24857;SDS011;12935;50.782;6.074;2022-09-13T06:51:24;25.40;;;13.30;;
24857;SDS011;12935;50.782;6.074;2022-09-13T06:53:50;23.27;;;12.50;;
24857;SDS011;12935;50.782;6.074;2022-09-13T06:56:20;32.50;;;14.23;;
24857;SDS011;12935;50.782;6.074;2022-09-13T06:58:49;26.47;;;12.87;;
24857;SDS011;12935;50.782;6.074;2022-09-13T07:01:17;43.70;;;17.17;;
24857;SDS011;12935;50.782;6.074;2022-09-13T07:03:49;32.23;;;14.00;;
24857;SDS011;12935;50.782;6.074;2022-09-13T07:08:43;30.67;;;14.10;;
24857;SDS011;12935;50.782;6.074;2022-09-13T07:11:09;26.30;;;14.13;;
24857;SDS011;12935;50.782;6.074;2022-09-13T07:13:36;23.60;;;13.73;;
24857;SDS011;12935;50.782;6.074;2022-09-13T07:16:02;47.57;;;15.27;;
24857;SDS011;12935;50.782;6.074;2022-09-13T07:18:29;35.00;;;14.77;;
24857;SDS011;12935;50.782;6.074;2022-09-13T07:21:05;48.33;;;15.70;;
24857;SDS011;12935;50.782;6.074;2022-09-13T07:23:33;52.87;;;16.10;;
24857;SDS011;12935;50.782;6.074;2022-09-13T07:26:00;46.63;;;16.33;;
24857;SDS011;12935;50.782;6.074;2022-09-13T07:28:48;31.00;;;13.73;;
24857;SDS011;12935;50.782;6.074;2022-09-13T07:31:23;46.00;;;15.43;;
24857;SDS011;12935;50.782;6.074;2022-09-13T07:33:54;29.43;;;14.00;;
24857;SDS011;12935;50.782;6.074;2022-09-13T07:36:21;30.50;;;13.87;;
24857;SDS011;12935;50.782;6.074;2022-09-13T07:38:47;48.67;;;15.53;;
24857;SDS011;12935;50.782;6.074;2022-09-13T07:41:13;44.87;;;15.03;;
24857;SDS011;12935;50.782;6.074;2022-09-13T07:43:40;38.87;;;15.50;;
24857;SDS011;12935;50.782;6.074;2022-09-13T07:46:06;33.77;;;14.43;;
24857;SDS011;12935;50.782;6.074;2022-09-13T07:48:34;27.43;;;13.97;;
24857;SDS011;12935;50.782;6.074;2022-09-13T07:51:02;30.80;;;15.50;;
24857;SDS011;12935;50.782;6.074;2022-09-13T07:53:28;46.73;;;15.90;;
24857;SDS011;12935;50.782;6.074;2022-09-13T07:56:05;22.07;;;13.37;;
24857;SDS011;12935;50.782;6.074;2022-09-13T07:58:34;37.83;;;15.03;;
24857;SDS011;12935;50.782;6.074;2022-09-13T08:01:05;38.23;;;14.93;;
24857;SDS011;12935;50.782;6.074;2022-09-13T08:03:33;49.17;;;16.27;;
24857;SDS011;12935;50.782;6.074;2022-09-13T08:05:59;50.53;;;17.60;;
24857;SDS011;12935;50.782;6.074;2022-09-13T08:08:25;73.03;;;20.47;;
24857;SDS011;12935;50.782;6.074;2022-09-13T08:10:50;24.90;;;15.70;;
24857;SDS011;12935;50.782;6.074;2022-09-13T08:13:16;30.90;;;14.80;;
24857;SDS011;12935;50.782;6.074;2022-09-13T08:15:41;95.27;;;22.93;;
24857;SDS011;12935;50.782;6.074;2022-09-13T08:18:07;33.43;;;16.20;;
24857;SDS011;12935;50.782;6.074;2022-09-13T08:20:34;40.63;;;16.57;;
24857;SDS011;12935;50.782;6.074;2022-09-13T08:23:04;41.47;;;16.43;;
24857;SDS011;12935;50.782;6.074;2022-09-13T08:25:31;25.73;;;15.83;;
24857;SDS011;12935;50.782;6.074;2022-09-13T08:27:58;55.03;;;17.80;;
24857;SDS011;12935;50.782;6.074;2022-09-13T08:30:25;37.30;;;16.37;;
24857;SDS011;12935;50.782;6.074;2022-09-13T08:32:57;56.50;;;18.57;;
24857;SDS011;12935;50.782;6.074;2022-09-13T08:35:22;56.10;;;18.57;;
24857;SDS011;12935;50.782;6.074;2022-09-13T08:37:48;28.10;;;14.57;;
24857;SDS011;12935;50.782;6.074;2022-09-13T08:40:14;29.23;;;14.60;;
24857;SDS011;12935;50.782;6.074;2022-09-13T08:42:45;39.30;;;16.57;;
24857;SDS011;12935;50.782;6.074;2022-09-13T08:45:14;47.63;;;17.70;;
24857;SDS011;12935;50.782;6.074;2022-09-13T08:48:02;73.37;;;20.50;;
24857;SDS011;12935;50.782;6.074;2022-09-13T08:50:29;25.77;;;15.20;;
24857;SDS011;12935;50.782;6.074;2022-09-13T09:06:43;37.97;;;16.07;;
24857;SDS011;12935;50.782;6.074;2022-09-13T09:09:11;42.63;;;19.07;;
24857;SDS011;12935;50.782;6.074;2022-09-13T09:11:50;68.80;;;19.33;;
24857;SDS011;12935;50.782;6.074;2022-09-13T09:14:28;61.70;;;21.60;;
24857;SDS011;12935;50.782;6.074;2022-09-13T09:16:59;24.93;;;16.87;;
24857;SDS011;12935;50.782;6.074;2022-09-13T09:19:29;38.80;;;18.17;;
24857;SDS011;12935;50.782;6.074;2022-09-13T09:22:03;48.03;;;18.00;;
24857;SDS011;12935;50.782;6.074;2022-09-13T09:24:36;39.53;;;18.03;;
24857;SDS011;12935;50.782;6.074;2022-09-13T09:27:08;40.70;;;18.20;;
24857;SDS011;12935;50.782;6.074;2022-09-13T09:29:40;30.20;;;18.10;;
24857;SDS011;12935;50.782;6.074;2022-09-13T09:32:28;72.77;;;22.97;;
24857;SDS011;12935;50.782;6.074;2022-09-13T09:38:26;33.27;;;17.83;;
24857;SDS011;12935;50.782;6.074;2022-09-13T09:40:59;32.50;;;17.60;;
24857;SDS011;12935;50.782;6.074;2022-09-13T09:43:31;24.30;;;16.90;;
24857;SDS011;12935;50.782;6.074;2022-09-13T09:46:03;50.33;;;18.90;;
24857;SDS011;12935;50.782;6.074;2022-09-13T09:48:35;38.73;;;18.70;;
24857;SDS011;12935;50.782;6.074;2022-09-13T09:51:06;32.97;;;17.73;;
24857;SDS011;12935;50.782;6.074;2022-09-13T09:53:35;58.13;;;20.27;;
24857;SDS011;12935;50.782;6.074;2022-09-13T09:58:57;24.50;;;15.90;;
24857;SDS011;12935;50.782;6.074;2022-09-13T10:01:33;38.70;;;18.47;;
24857;SDS011;12935;50.782;6.074;2022-09-13T10:04:16;33.00;;;18.70;;
24857;SDS011;12935;50.782;6.074;2022-09-13T10:06:44;32.80;;;18.40;;
24857;SDS011;12935;50.782;6.074;2022-09-13T10:11:48;35.13;;;17.67;;
24857;SDS011;12935;50.782;6.074;2022-09-13T10:19:39;34.37;;;17.70;;
24857;SDS011;12935;50.782;6.074;2022-09-13T10:22:05;31.87;;;17.43;;
24857;SDS011;12935;50.782;6.074;2022-09-13T10:24:35;27.13;;;17.10;;
24857;SDS011;12935;50.782;6.074;2022-09-13T10:27:00;62.43;;;21.83;;
24857;SDS011;12935;50.782;6.074;2022-09-13T10:29:28;39.03;;;18.77;;
24857;SDS011;12935;50.782;6.074;2022-09-13T10:31:55;42.03;;;19.03;;
24857;SDS011;12935;50.782;6.074;2022-09-13T10:34:24;29.30;;;17.83;;
24857;SDS011;12935;50.782;6.074;2022-09-13T10:39:18;34.80;;;17.87;;
24857;SDS011;12935;50.782;6.074;2022-09-13T10:42:02;51.57;;;19.00;;
24857;SDS011;12935;50.782;6.074;2022-09-13T10:47:03;27.07;;;17.33;;
24857;SDS011;12935;50.782;6.074;2022-09-13T10:52:37;61.93;;;21.37;;
24857;SDS011;12935;50.782;6.074;2022-09-13T10:57:42;31.07;;;17.83;;
24857;SDS011;12935;50.782;6.074;2022-09-13T11:00:10;28.73;;;18.00;;
24857;SDS011;12935;50.782;6.074;2022-09-13T11:02:41;73.33;;;23.17;;
24857;SDS011;12935;50.782;6.074;2022-09-13T11:08:33;63.73;;;20.97;;
24857;SDS011;12935;50.782;6.074;2022-09-13T11:11:35;57.20;;;20.90;;
24857;SDS011;12935;50.782;6.074;2022-09-13T11:22:47;39.37;;;19.67;;
24857;SDS011;12935;50.782;6.074;2022-09-13T11:30:07;41.17;;;19.67;;
24857;SDS011;12935;50.782;6.074;2022-09-13T11:32:51;54.30;;;21.00;;
24857;SDS011;12935;50.782;6.074;2022-09-13T11:35:35;27.13;;;18.47;;
24857;SDS011;12935;50.782;6.074;2022-09-13T11:38:33;26.87;;;17.93;;
24857;SDS011;12935;50.782;6.074;2022-09-13T11:49:47;37.23;;;18.80;;
24857;SDS011;12935;50.782;6.074;2022-09-13T11:55:17;32.97;;;18.27;;
24857;SDS011;12935;50.782;6.074;2022-09-13T11:57:54;35.27;;;18.97;;
24857;SDS011;12935;50.782;6.074;2022-09-13T12:00:24;33.10;;;17.50;;
24857;SDS011;12935;50.782;6.074;2022-09-13T12:05:38;33.67;;;18.60;;
24857;SDS011;12935;50.782;6.074;2022-09-13T12:10:38;37.97;;;19.87;;
24857;SDS011;12935;50.782;6.074;2022-09-13T12:13:17;23.43;;;16.90;;
24857;SDS011;12935;50.782;6.074;2022-09-13T12:15:46;26.17;;;17.60;;
24857;SDS011;12935;50.782;6.074;2022-09-13T12:18:19;41.50;;;19.70;;
24857;SDS011;12935;50.782;6.074;2022-09-13T12:21:03;30.87;;;18.70;;
24857;SDS011;12935;50.782;6.074;2022-09-13T12:26:17;37.07;;;19.10;;
24857;SDS011;12935;50.782;6.074;2022-09-13T12:28:54;29.07;;;18.23;;
24857;SDS011;12935;50.782;6.074;2022-09-13T12:31:27;37.43;;;19.20;;
24857;SDS011;12935;50.782;6.074;2022-09-13T12:33:54;41.47;;;18.87;;
24857;SDS011;12935;50.782;6.074;2022-09-13T12:47:31;41.83;;;21.00;;
24857;SDS011;12935;50.782;6.074;2022-09-13T12:56:09;30.20;;;19.37;;
24857;SDS011;12935;50.782;6.074;2022-09-13T12:58:46;29.73;;;17.20;;
24857;SDS011;12935;50.782;6.074;2022-09-13T13:01:19;49.53;;;20.50;;
24857;SDS011;12935;50.782;6.074;2022-09-13T13:12:09;36.03;;;19.43;;
24857;SDS011;12935;50.782;6.074;2022-09-13T13:19:58;38.50;;;19.27;;
24857;SDS011;12935;50.782;6.074;2022-09-13T13:31:06;47.30;;;20.63;;
24857;SDS011;12935;50.782;6.074;2022-09-13T13:33:41;43.70;;;20.17;;
24857;SDS011;12935;50.782;6.074;2022-09-13T13:36:22;32.90;;;18.17;;
24857;SDS011;12935;50.782;6.074;2022-09-13T13:38:50;28.77;;;17.70;;
24857;SDS011;12935;50.782;6.074;2022-09-13T13:41:59;44.97;;;19.87;;
24857;SDS011;12935;50.782;6.074;2022-09-13T13:46:45;54.20;;;20.13;;
24857;SDS011;12935;50.782;6.074;2022-09-13T13:57:15;38.90;;;19.07;;
24857;SDS011;12935;50.782;6.074;2022-09-13T13:59:54;34.57;;;18.30;;
24857;SDS011;12935;50.782;6.074;2022-09-13T14:02:23;74.07;;;23.27;;
24857;SDS011;12935;50.782;6.074;2022-09-13T14:05:01;25.07;;;18.27;;
24857;SDS011;12935;50.782;6.074;2022-09-13T14:10:04;47.53;;;19.80;;
24857;SDS011;12935;50.782;6.074;2022-09-13T14:12:48;32.93;;;18.13;;
24857;SDS011;12935;50.782;6.074;2022-09-13T14:16:02;38.07;;;19.33;;
24857;SDS011;12935;50.782;6.074;2022-09-13T14:21:20;47.47;;;19.77;;
24857;SDS011;12935;50.782;6.074;2022-09-13T14:23:48;36.93;;;17.07;;
24857;SDS011;12935;50.782;6.074;2022-09-13T14:26:14;37.80;;;18.77;;
24857;SDS011;12935;50.782;6.074;2022-09-13T14:28:40;32.47;;;17.90;;
24857;SDS011;12935;50.782;6.074;2022-09-13T14:31:05;32.33;;;18.83;;
24857;SDS011;12935;50.782;6.074;2022-09-13T14:33:33;43.70;;;19.23;;
24857;SDS011;12935;50.782;6.074;2022-09-13T14:36:05;24.50;;;16.83;;
24857;SDS011;12935;50.782;6.074;2022-09-13T14:38:33;56.40;;;20.97;;
24857;SDS011;12935;50.782;6.074;2022-09-13T14:41:16;32.87;;;17.77;;
24857;SDS011;12935;50.782;6.074;2022-09-13T14:43:44;41.17;;;18.97;;
24857;SDS011;12935;50.782;6.074;2022-09-13T14:46:16;38.53;;;17.93;;
24857;SDS011;12935;50.782;6.074;2022-09-13T14:51:22;28.97;;;16.80;;
24857;SDS011;12935;50.782;6.074;2022-09-13T14:53:52;34.57;;;18.50;;
24857;SDS011;12935;50.782;6.074;2022-09-13T14:56:28;45.27;;;19.27;;
24857;SDS011;12935;50.782;6.074;2022-09-13T14:59:02;67.43;;;20.90;;
24857;SDS011;12935;50.782;6.074;2022-09-13T15:01:31;59.53;;;20.00;;
24857;SDS011;12935;50.782;6.074;2022-09-13T15:03:59;30.57;;;17.87;;
24857;SDS011;12935;50.782;6.074;2022-09-13T15:06:28;33.43;;;18.00;;
24857;SDS011;12935;50.782;6.074;2022-09-13T15:09:24;70.27;;;21.37;;
24857;SDS011;12935;50.782;6.074;2022-09-13T15:14:32;35.37;;;17.60;;
24857;SDS011;12935;50.782;6.074;2022-09-13T15:22:13;43.70;;;18.03;;
24857;SDS011;12935;50.782;6.074;2022-09-13T15:24:47;40.53;;;17.50;;
24857;SDS011;12935;50.782;6.074;2022-09-13T15:27:16;30.27;;;17.07;;
24857;SDS011;12935;50.782;6.074;2022-09-13T15:30:03;76.57;;;21.67;;
24857;SDS011;12935;50.782;6.074;2022-09-13T15:32:41;69.80;;;19.43;;
24857;SDS011;12935;50.782;6.074;2022-09-13T15:35:21;39.83;;;17.33;;
24857;SDS011;12935;50.782;6.074;2022-09-13T15:37:59;26.60;;;16.50;;
24857;SDS011;12935;50.782;6.074;2022-09-13T15:40:26;45.67;;;18.80;;
24857;SDS011;12935;50.782;6.074;2022-09-13T15:42:53;39.43;;;18.30;;
24857;SDS011;12935;50.782;6.074;2022-09-13T15:45:20;55.07;;;18.60;;
24857;SDS011;12935;50.782;6.074;2022-09-13T15:47:46;35.07;;;18.07;;
24857;SDS011;12935;50.782;6.074;2022-09-13T15:50:24;28.47;;;16.87;;
24857;SDS011;12935;50.782;6.074;2022-09-13T15:52:55;31.10;;;16.77;;
24857;SDS011;12935;50.782;6.074;2022-09-13T15:55:22;36.83;;;15.73;;
24857;SDS011;12935;50.782;6.074;2022-09-13T15:57:48;52.17;;;19.00;;
24857;SDS011;12935;50.782;6.074;2022-09-13T16:00:24;43.83;;;16.93;;
24857;SDS011;12935;50.782;6.074;2022-09-13T16:02:52;41.63;;;17.97;;
24857;SDS011;12935;50.782;6.074;2022-09-13T16:05:17;35.77;;;18.57;;
24857;SDS011;12935;50.782;6.074;2022-09-13T16:07:43;31.47;;;17.13;;
24857;SDS011;12935;50.782;6.074;2022-09-13T16:10:13;26.47;;;14.33;;
24857;SDS011;12935;50.782;6.074;2022-09-13T16:12:46;53.63;;;17.57;;
24857;SDS011;12935;50.782;6.074;2022-09-13T16:15:12;38.43;;;17.80;;
24857;SDS011;12935;50.782;6.074;2022-09-13T16:17:38;64.97;;;19.97;;
24857;SDS011;12935;50.782;6.074;2022-09-13T16:20:04;31.43;;;16.83;;
24857;SDS011;12935;50.782;6.074;2022-09-13T16:22:32;42.70;;;18.70;;
24857;SDS011;12935;50.782;6.074;2022-09-13T16:24:57;48.90;;;18.70;;
24857;SDS011;12935;50.782;6.074;2022-09-13T16:27:22;27.40;;;16.43;;
24857;SDS011;12935;50.782;6.074;2022-09-13T16:29:50;53.30;;;19.07;;
24857;SDS011;12935;50.782;6.074;2022-09-13T16:32:16;76.53;;;21.93;;
24857;SDS011;12935;50.782;6.074;2022-09-13T16:34:41;46.90;;;18.67;;
24857;SDS011;12935;50.782;6.074;2022-09-13T16:37:07;27.30;;;14.43;;
24857;SDS011;12935;50.782;6.074;2022-09-13T16:39:32;83.87;;;21.80;;
24857;SDS011;12935;50.782;6.074;2022-09-13T16:41:57;51.87;;;19.67;;
24857;SDS011;12935;50.782;6.074;2022-09-13T16:44:23;28.70;;;15.60;;
24857;SDS011;12935;50.782;6.074;2022-09-13T16:46:48;47.00;;;18.10;;
24857;SDS011;12935;50.782;6.074;2022-09-13T16:49:13;42.70;;;17.33;;
24857;SDS011;12935;50.782;6.074;2022-09-13T16:51:39;33.13;;;16.67;;
24857;SDS011;12935;50.782;6.074;2022-09-13T16:54:05;35.23;;;16.50;;
24857;SDS011;12935;50.782;6.074;2022-09-13T16:56:30;26.40;;;15.20;;
24857;SDS011;12935;50.782;6.074;2022-09-13T16:58:56;26.90;;;16.10;;
24857;SDS011;12935;50.782;6.074;2022-09-13T17:01:22;39.80;;;14.77;;
24857;SDS011;12935;50.782;6.074;2022-09-13T17:03:50;46.73;;;17.87;;
24857;SDS011;12935;50.782;6.074;2022-09-13T17:06:17;26.40;;;13.47;;
24857;SDS011;12935;50.782;6.074;2022-09-13T17:08:52;31.60;;;14.73;;
24857;SDS011;12935;50.782;6.074;2022-09-13T17:11:26;32.57;;;16.33;;
24857;SDS011;12935;50.782;6.074;2022-09-13T17:13:53;44.77;;;17.23;;
24857;SDS011;12935;50.782;6.074;2022-09-13T17:16:21;38.67;;;14.67;;
24857;SDS011;12935;50.782;6.074;2022-09-13T17:18:51;29.70;;;13.93;;
24857;SDS011;12935;50.782;6.074;2022-09-13T17:21:18;41.63;;;16.30;;
24857;SDS011;12935;50.782;6.074;2022-09-13T17:23:44;31.33;;;14.53;;
24857;SDS011;12935;50.782;6.074;2022-09-13T17:26:09;31.40;;;14.63;;
24857;SDS011;12935;50.782;6.074;2022-09-13T17:28:35;56.50;;;18.30;;
24857;SDS011;12935;50.782;6.074;2022-09-13T17:31:01;47.23;;;16.00;;
24857;SDS011;12935;50.782;6.074;2022-09-13T17:33:26;42.67;;;15.90;;
24857;SDS011;12935;50.782;6.074;2022-09-13T17:36:02;53.13;;;16.33;;
24857;SDS011;12935;50.782;6.074;2022-09-13T17:38:29;70.60;;;19.50;;
24857;SDS011;12935;50.782;6.074;2022-09-13T17:40:58;37.53;;;15.50;;
24857;SDS011;12935;50.782;6.074;2022-09-13T17:43:28;40.53;;;14.53;;
24857;SDS011;12935;50.782;6.074;2022-09-13T17:45:54;43.63;;;14.70;;
24857;SDS011;12935;50.782;6.074;2022-09-13T17:48:19;25.37;;;14.37;;
24857;SDS011;12935;50.782;6.074;2022-09-13T17:50:44;31.70;;;14.37;;
24857;SDS011;12935;50.782;6.074;2022-09-13T17:53:10;31.37;;;15.63;;